This is the latest recevied weather packets stored in our database for station/object K4IR. If no packets are shown the sender has not sent any weather packets the latest 10 day(s).
| Time | Temp. | Humidity | Pressure | Rain* | Wind** | Luminosity | Snow |
|---|---|---|---|---|---|---|---|
| 1777742129 | 13.89° C | 97% | 1010 hPa | 0.51 mm | - | 259 W/m² | - |
| 1777741529 | 13.89° C | 97% | 1010.9 hPa | 1.78 mm | - | 134 W/m² | - |
| 1777740928 | 13.89° C | 97% | 1011.1 hPa | 1.27 mm | - | 212 W/m² | - |
| 1777740326 | 13.89° C | 97% | 1011.4 hPa | 1.78 mm | - | 227 W/m² | - |
| 1777739724 | 13.89° C | 97% | 1012 hPa | 4.32 mm | - | 100 W/m² | - |
| 1777739123 | 14.44° C | 98% | 1011.5 hPa | 3.56 mm | - | 107 W/m² | - |
| 1777738522 | 13.89° C | 97% | 1011.7 hPa | 3.56 mm | - | 81 W/m² | - |
| 1777737923 | 13.89° C | 97% | 1011.6 hPa | 3.56 mm | - | 91 W/m² | - |
| 1777737319 | 13.89° C | 97% | 1011.7 hPa | 4.32 mm | - | 94 W/m² | - |
| 1777736716 | 13.89° C | 97% | 1011.6 hPa | 0.51 mm | - | 69 W/m² | - |
| 1777736055 | 13.89° C | 97% | 1011.4 hPa | 1.78 mm | - | 135 W/m² | - |
| 1777735455 | 14.44° C | 97% | 1011.6 hPa | 3.05 mm | - | 188 W/m² | - |
| 1777734855 | 13.89° C | 97% | 1012.4 hPa | 2.29 mm | - | 86 W/m² | - |
| 1777734254 | 13.89° C | 97% | 1012.2 hPa | 1.78 mm | - | 121 W/m² | - |
| 1777733653 | 13.89° C | 97% | 1012.4 hPa | 1.78 mm | - | 73 W/m² | - |
| 1777733052 | 14.44° C | 97% | 1012.3 hPa | 3.05 mm | - | 59 W/m² | - |
| 1777732451 | 14.44° C | 97% | 1011.9 hPa | 1.27 mm | - | 100 W/m² | - |
| 1777731851 | 14.44° C | 97% | 1011.9 hPa | 0.51 mm | - | 59 W/m² | - |
| 1777731246 | 14.44° C | 97% | 1011.4 hPa | 0 mm | - | 82 W/m² | - |
| 1777730641 | 14.44° C | 98% | 1011.1 hPa | 0 mm | - | 72 W/m² | - |
| 1777730040 | 14.44° C | 98% | 1011.1 hPa | 0 mm | - | 118 W/m² | - |
| 1777729439 | 14.44° C | 98% | 1010.9 hPa | 0 mm | - | 150 W/m² | - |
| 1777728838 | 14.44° C | 98% | 1010.8 hPa | 0 mm | - | 108 W/m² | - |
| 1777728232 | 14.44° C | 98% | 1010.5 hPa | 0 mm | - | 184 W/m² | - |
| 1777727632 | 14.44° C | 98% | 1010.4 hPa | 0 mm | - | 183 W/m² | - |
* Rain latest hour (hover to see other rain measurements)
** Current wind speed in m/s (hover to see current wind gust speed)